Elmo, Montana
Current Conditions -  °F | °C
As of 9:33 PM on Thursday 18 Dec 2014 (Local Time) from KGPI Reporting Station
Moderate Fog Moderate Fog  
Wind Chill: 31°   Ceiling: 900
Heat Index: 31°   Visibility: 0.5mi
Dew Point: 30°   Wind: 0mph
Humidity: 96%   Direction: NA
Pressure: 29.98"   Gusts: NA
Location:  47.83°N, 114.35°W
Report Text: KGPI 190433Z 00000KT 1/2SM FZFG FEW002 OVC009 M01/M01 A2998 RMK AO2 T10061011 $
Loading
Personal Weather Stations






























Interactive Weather Map New forecast layout! Learn more

10-Day Weather Forecast

Advertisements
Track Severe Weather on mobile